sensor_id;sensor_type;location;lat;lon;timestamp;pressure;altitude;pressure_sealevel;temperature;humidity
66385;BME280;53426;55.872;37.462;2022-10-31T00:01:17;97507.69;;;1.04;57.70
66385;BME280;53426;55.872;37.462;2022-10-31T00:03:43;97494.06;;;1.11;57.64
66385;BME280;53426;55.872;37.462;2022-10-31T00:06:11;97492.53;;;1.20;57.49
66385;BME280;53426;55.872;37.462;2022-10-31T00:08:37;97475.25;;;1.08;57.25
66385;BME280;53426;55.872;37.462;2022-10-31T00:11:03;97483.19;;;1.06;57.39
66385;BME280;53426;55.872;37.462;2022-10-31T00:13:29;97464.94;;;0.95;57.22
66385;BME280;53426;55.872;37.462;2022-10-31T00:15:54;97479.03;;;1.04;57.40
66385;BME280;53426;55.872;37.462;2022-10-31T00:18:36;97449.31;;;0.84;57.79
66385;BME280;53426;55.872;37.462;2022-10-31T00:21:03;97482.72;;;1.01;57.74
66385;BME280;53426;55.872;37.462;2022-10-31T00:23:29;97458.06;;;0.94;57.89
66385;BME280;53426;55.872;37.462;2022-10-31T00:26:03;97475.34;;;1.06;58.25
66385;BME280;53426;55.872;37.462;2022-10-31T00:28:29;97475.47;;;1.05;57.98
66385;BME280;53426;55.872;37.462;2022-10-31T00:31:04;97484.94;;;1.17;58.15
66385;BME280;53426;55.872;37.462;2022-10-31T00:33:33;97483.16;;;1.17;58.13
66385;BME280;53426;55.872;37.462;2022-10-31T00:35:59;97479.34;;;1.21;57.81
66385;BME280;53426;55.872;37.462;2022-10-31T00:38:25;97474.88;;;1.23;58.15
66385;BME280;53426;55.872;37.462;2022-10-31T00:40:51;97467.78;;;1.14;57.94
66385;BME280;53426;55.872;37.462;2022-10-31T00:43:17;97477.22;;;1.15;58.50
66385;BME280;53426;55.872;37.462;2022-10-31T00:45:43;97477.50;;;1.12;58.97
66385;BME280;53426;55.872;37.462;2022-10-31T00:48:09;97473.47;;;1.08;58.22
66385;BME280;53426;55.872;37.462;2022-10-31T00:50:36;97475.47;;;1.05;58.68
66385;BME280;53426;55.872;37.462;2022-10-31T00:53:02;97479.28;;;1.01;58.58
66385;BME280;53426;55.872;37.462;2022-10-31T00:55:27;97483.66;;;1.00;58.93
66385;BME280;53426;55.872;37.462;2022-10-31T00:57:54;97475.94;;;0.99;59.30
66385;BME280;53426;55.872;37.462;2022-10-31T01:00:20;97465.19;;;0.92;59.37
66385;BME280;53426;55.872;37.462;2022-10-31T01:02:47;97483.66;;;1.00;59.43
66385;BME280;53426;55.872;37.462;2022-10-31T01:05:13;97463.06;;;0.86;59.89
66385;BME280;53426;55.872;37.462;2022-10-31T01:07:40;97470.41;;;0.92;60.29
66385;BME280;53426;55.872;37.462;2022-10-31T01:10:09;97474.63;;;1.04;60.64
66385;BME280;53426;55.872;37.462;2022-10-31T01:12:41;97479.97;;;1.14;60.98
66385;BME280;53426;55.872;37.462;2022-10-31T01:15:08;97475.34;;;1.06;61.73
66385;BME280;53426;55.872;37.462;2022-10-31T01:17:34;97478.91;;;0.94;62.53
66385;BME280;53426;55.872;37.462;2022-10-31T01:20:03;97460.09;;;0.79;63.50
66385;BME280;53426;55.872;37.462;2022-10-31T01:22:30;97470.63;;;0.67;64.06
66385;BME280;53426;55.872;37.462;2022-10-31T01:25:00;97475.25;;;0.63;65.51
66385;BME280;53426;55.872;37.462;2022-10-31T01:27:26;97479.16;;;0.58;66.68
66385;BME280;53426;55.872;37.462;2022-10-31T01:29:52;97467.78;;;0.48;67.41
66385;BME280;53426;55.872;37.462;2022-10-31T01:32:17;97476.66;;;0.45;68.02
66385;BME280;53426;55.872;37.462;2022-10-31T01:34:44;97492.03;;;0.37;68.53
66385;BME280;53426;55.872;37.462;2022-10-31T01:37:12;97487.03;;;0.34;69.42
66385;BME280;53426;55.872;37.462;2022-10-31T01:39:38;97454.13;;;0.11;69.94
66385;BME280;53426;55.872;37.462;2022-10-31T01:42:04;97486.34;;;0.32;71.00
66385;BME280;53426;55.872;37.462;2022-10-31T01:47:03;97489.53;;;0.35;71.21
66385;BME280;53426;55.872;37.462;2022-10-31T01:49:40;97486.84;;;0.37;71.48
66385;BME280;53426;55.872;37.462;2022-10-31T01:52:12;97488.47;;;0.27;71.76
66385;BME280;53426;55.872;37.462;2022-10-31T01:54:50;97483.84;;;0.19;72.33
66385;BME280;53426;55.872;37.462;2022-10-31T01:57:17;97476.56;;;0.00;73.03
66385;BME280;53426;55.872;37.462;2022-10-31T01:59:47;97493.16;;;0.11;73.11
66385;BME280;53426;55.872;37.462;2022-10-31T02:02:16;97489.59;;;0.12;73.69
66385;BME280;53426;55.872;37.462;2022-10-31T02:04:45;97498.84;;;0.16;73.77
66385;BME280;53426;55.872;37.462;2022-10-31T02:07:16;97463.19;;;-0.06;73.82
66385;BME280;53426;55.872;37.462;2022-10-31T02:09:45;97493.97;;;0.11;73.80
66385;BME280;53426;55.872;37.462;2022-10-31T02:12:11;97497.63;;;0.09;74.29
66385;BME280;53426;55.872;37.462;2022-10-31T02:14:38;97488.75;;;0.00;74.37
66385;BME280;53426;55.872;37.462;2022-10-31T02:17:07;97496.31;;;0.03;74.78
66385;BME280;53426;55.872;37.462;2022-10-31T02:19:52;97486.66;;;0.05;74.56
66385;BME280;53426;55.872;37.462;2022-10-31T02:33:25;97494.44;;;0.05;76.77
66385;BME280;53426;55.872;37.462;2022-10-31T02:36:10;97493.97;;;0.11;76.38
66385;BME280;53426;55.872;37.462;2022-10-31T02:44:34;97490.19;;;0.04;76.13
66385;BME280;53426;55.872;37.462;2022-10-31T02:47:05;97489.91;;;-0.04;76.90
66385;BME280;53426;55.872;37.462;2022-10-31T02:49:40;97481.13;;;-0.14;76.75
66385;BME280;53426;55.872;37.462;2022-10-31T02:54:46;97489.69;;;-0.01;76.92
66385;BME280;53426;55.872;37.462;2022-10-31T02:57:14;97486.03;;;0.02;76.65
66385;BME280;53426;55.872;37.462;2022-10-31T02:59:47;97498.47;;;0.09;76.19
66385;BME280;53426;55.872;37.462;2022-10-31T03:05:27;97501.03;;;-0.02;77.02
66385;BME280;53426;55.872;37.462;2022-10-31T03:15:43;97501.59;;;-0.10;76.45
66385;BME280;53426;55.872;37.462;2022-10-31T03:18:23;97494.47;;;-0.19;76.01
66385;BME280;53426;55.872;37.462;2022-10-31T03:21:02;97500.06;;;-0.12;76.52
66385;BME280;53426;55.872;37.462;2022-10-31T03:23:31;97491.28;;;-0.22;76.85
66385;BME280;53426;55.872;37.462;2022-10-31T03:26:01;97505.75;;;-0.07;76.82
66385;BME280;53426;55.872;37.462;2022-10-31T03:28:31;97499.03;;;0.02;76.46
66385;BME280;53426;55.872;37.462;2022-10-31T03:31:01;97485.91;;;0.03;76.43
66385;BME280;53426;55.872;37.462;2022-10-31T03:33:31;97487.09;;;-0.01;76.39
66385;BME280;53426;55.872;37.462;2022-10-31T03:36:00;97493.22;;;-0.02;76.54
66385;BME280;53426;55.872;37.462;2022-10-31T03:38:28;97494.75;;;0.00;76.43
66385;BME280;53426;55.872;37.462;2022-10-31T03:40:55;97495.28;;;0.17;76.08
66385;BME280;53426;55.872;37.462;2022-10-31T03:43:30;97486.28;;;0.10;76.30
66385;BME280;53426;55.872;37.462;2022-10-31T03:45:57;97516.97;;;0.28;75.56
66385;BME280;53426;55.872;37.462;2022-10-31T03:48:24;97478.72;;;0.18;75.60
66385;BME280;53426;55.872;37.462;2022-10-31T03:53:57;97500.13;;;0.10;76.29
66385;BME280;53426;55.872;37.462;2022-10-31T03:56:34;97516.09;;;0.17;75.92
66385;BME280;53426;55.872;37.462;2022-10-31T03:59:05;97514.94;;;0.21;76.04
66385;BME280;53426;55.872;37.462;2022-10-31T04:01:38;97500.50;;;0.17;75.78
66385;BME280;53426;55.872;37.462;2022-10-31T04:04:06;97498.38;;;0.11;75.98
66385;BME280;53426;55.872;37.462;2022-10-31T04:06:34;97522.16;;;0.28;76.22
66385;BME280;53426;55.872;37.462;2022-10-31T04:09:04;97526.50;;;0.17;76.10
66385;BME280;53426;55.872;37.462;2022-10-31T04:11:36;97507.13;;;0.10;76.52
66385;BME280;53426;55.872;37.462;2022-10-31T04:14:29;97517.53;;;0.10;76.04
66385;BME280;53426;55.872;37.462;2022-10-31T04:16:57;97530.41;;;0.11;76.79
66385;BME280;53426;55.872;37.462;2022-10-31T04:19:33;97537.06;;;0.15;76.61
66385;BME280;53426;55.872;37.462;2022-10-31T04:21:59;97520.97;;;0.10;77.00
66385;BME280;53426;55.872;37.462;2022-10-31T04:24:25;97525.97;;;0.24;76.54
66385;BME280;53426;55.872;37.462;2022-10-31T04:26:51;97540.84;;;0.22;76.52
66385;BME280;53426;55.872;37.462;2022-10-31T04:29:18;97550.81;;;0.28;76.41
66385;BME280;53426;55.872;37.462;2022-10-31T04:31:44;97545.09;;;0.23;76.29
66385;BME280;53426;55.872;37.462;2022-10-31T04:34:10;97534.56;;;0.14;76.52
66385;BME280;53426;55.872;37.462;2022-10-31T04:36:35;97555.13;;;0.17;76.62
66385;BME280;53426;55.872;37.462;2022-10-31T04:39:01;97541.44;;;0.15;76.82
66385;BME280;53426;55.872;37.462;2022-10-31T04:41:37;97474.00;;;-0.23;77.02
66385;BME280;53426;55.872;37.462;2022-10-31T04:44:12;97552.56;;;0.28;76.64
66385;BME280;53426;55.872;37.462;2022-10-31T04:46:38;97563.72;;;0.30;76.94
66385;BME280;53426;55.872;37.462;2022-10-31T04:49:04;97557.22;;;0.35;76.73
66385;BME280;53426;55.872;37.462;2022-10-31T04:51:29;97561.59;;;0.35;76.46
66385;BME280;53426;55.872;37.462;2022-10-31T04:53:55;97557.22;;;0.35;76.48
66385;BME280;53426;55.872;37.462;2022-10-31T04:56:41;97567.22;;;0.53;76.11
66385;BME280;53426;55.872;37.462;2022-10-31T04:59:14;97547.63;;;0.36;76.02
66385;BME280;53426;55.872;37.462;2022-10-31T05:01:48;97569.69;;;0.43;76.10
66385;BME280;53426;55.872;37.462;2022-10-31T05:04:17;97578.44;;;0.42;76.24
66385;BME280;53426;55.872;37.462;2022-10-31T05:06:43;97585.78;;;0.48;75.99
66385;BME280;53426;55.872;37.462;2022-10-31T05:09:08;97579.97;;;0.45;76.01
66385;BME280;53426;55.872;37.462;2022-10-31T05:11:34;97587.94;;;0.54;76.06
66385;BME280;53426;55.872;37.462;2022-10-31T05:14:14;97592.34;;;0.65;75.75
66385;BME280;53426;55.872;37.462;2022-10-31T05:16:58;97586.00;;;0.45;75.79
66385;BME280;53426;55.872;37.462;2022-10-31T05:19:59;97602.38;;;0.58;75.83
66385;BME280;53426;55.872;37.462;2022-10-31T05:23:03;97611.25;;;0.67;75.88
66385;BME280;53426;55.872;37.462;2022-10-31T05:25:29;97610.59;;;0.76;76.17
66385;BME280;53426;55.872;37.462;2022-10-31T05:27:56;97614.00;;;0.65;75.99
66385;BME280;53426;55.872;37.462;2022-10-31T05:30:25;97626.44;;;0.73;76.17
66385;BME280;53426;55.872;37.462;2022-10-31T05:32:51;97631.66;;;0.73;76.19
66385;BME280;53426;55.872;37.462;2022-10-31T05:35:36;97620.03;;;0.66;76.39
66385;BME280;53426;55.872;37.462;2022-10-31T05:38:24;97639.34;;;0.74;76.17
66385;BME280;53426;55.872;37.462;2022-10-31T05:40:54;97634.59;;;0.68;76.06
66385;BME280;53426;55.872;37.462;2022-10-31T05:43:23;97651.19;;;0.78;76.33
66385;BME280;53426;55.872;37.462;2022-10-31T05:45:55;97644.22;;;0.79;76.31
66385;BME280;53426;55.872;37.462;2022-10-31T05:48:41;97656.53;;;0.88;76.02
66385;BME280;53426;55.872;37.462;2022-10-31T05:51:42;97676.56;;;0.88;76.21
66385;BME280;53426;55.872;37.462;2022-10-31T05:54:08;97681.91;;;0.86;76.08
66385;BME280;53426;55.872;37.462;2022-10-31T05:56:43;97686.63;;;0.81;76.15
66385;BME280;53426;55.872;37.462;2022-10-31T05:59:09;97687.59;;;0.91;76.54
66385;BME280;53426;55.872;37.462;2022-10-31T06:01:35;97695.41;;;0.91;76.09
66385;BME280;53426;55.872;37.462;2022-10-31T06:04:08;97673.84;;;0.89;76.38
66385;BME280;53426;55.872;37.462;2022-10-31T06:06:44;97701.84;;;0.98;76.20
66385;BME280;53426;55.872;37.462;2022-10-31T06:09:11;97721.06;;;1.08;76.21
66385;BME280;53426;55.872;37.462;2022-10-31T06:11:37;97715.22;;;1.05;76.30
66385;BME280;53426;55.872;37.462;2022-10-31T06:14:03;97722.69;;;1.09;76.62
66385;BME280;53426;55.872;37.462;2022-10-31T06:16:49;97732.44;;;1.18;76.81
66385;BME280;53426;55.872;37.462;2022-10-31T06:19:33;97738.94;;;1.13;76.49
66385;BME280;53426;55.872;37.462;2022-10-31T06:21:59;97748.88;;;1.08;77.08
66385;BME280;53426;55.872;37.462;2022-10-31T06:24:24;97744.81;;;1.04;77.60
66385;BME280;53426;55.872;37.462;2022-10-31T06:26:53;97771.41;;;1.09;77.43
66385;BME280;53426;55.872;37.462;2022-10-31T06:29:21;97774.00;;;1.09;77.93
66385;BME280;53426;55.872;37.462;2022-10-31T06:32:14;97779.44;;;1.06;77.75
66385;BME280;53426;55.872;37.462;2022-10-31T06:34:48;97788.38;;;1.14;77.95
66385;BME280;53426;55.872;37.462;2022-10-31T06:37:21;97793.50;;;1.27;78.19
66385;BME280;53426;55.872;37.462;2022-10-31T06:39:49;97791.81;;;1.26;77.75
66385;BME280;53426;55.872;37.462;2022-10-31T06:42:16;97801.94;;;1.31;78.01
66385;BME280;53426;55.872;37.462;2022-10-31T06:44:42;97801.19;;;1.29;77.82
66385;BME280;53426;55.872;37.462;2022-10-31T06:47:50;97800.03;;;1.33;78.24
66385;BME280;53426;55.872;37.462;2022-10-31T06:50:22;97807.75;;;1.34;77.94
66385;BME280;53426;55.872;37.462;2022-10-31T06:52:57;97822.81;;;1.53;78.02
66385;BME280;53426;55.872;37.462;2022-10-31T06:55:26;97808.75;;;1.55;78.05
66385;BME280;53426;55.872;37.462;2022-10-31T06:58:01;97833.28;;;1.64;77.83
66385;BME280;53426;55.872;37.462;2022-10-31T07:00:29;97844.81;;;1.61;78.28
66385;BME280;53426;55.872;37.462;2022-10-31T07:03:05;97841.47;;;1.59;78.44
66385;BME280;53426;55.872;37.462;2022-10-31T07:05:33;97855.38;;;1.71;78.58
66385;BME280;53426;55.872;37.462;2022-10-31T07:08:01;97854.22;;;1.86;77.91
66385;BME280;53426;55.872;37.462;2022-10-31T07:10:30;97846.88;;;1.91;77.50
66385;BME280;53426;55.872;37.462;2022-10-31T07:13:04;97876.69;;;2.00;77.09
66385;BME280;53426;55.872;37.462;2022-10-31T07:15:36;97885.91;;;1.93;76.76
66385;BME280;53426;55.872;37.462;2022-10-31T07:18:07;97883.06;;;1.85;77.42
66385;BME280;53426;55.872;37.462;2022-10-31T07:20:34;97894.69;;;1.92;77.47
66385;BME280;53426;55.872;37.462;2022-10-31T07:23:01;97900.16;;;1.89;78.15
66385;BME280;53426;55.872;37.462;2022-10-31T07:25:27;97896.34;;;1.93;78.61
66385;BME280;53426;55.872;37.462;2022-10-31T07:28:14;97906.34;;;1.99;78.62
66385;BME280;53426;55.872;37.462;2022-10-31T07:30:39;97905.50;;;1.98;78.60
66385;BME280;53426;55.872;37.462;2022-10-31T07:33:08;97922.81;;;1.99;78.85
66385;BME280;53426;55.872;37.462;2022-10-31T07:36:02;97934.09;;;2.00;78.53
66385;BME280;53426;55.872;37.462;2022-10-31T07:38:30;97937.72;;;1.86;79.03
66385;BME280;53426;55.872;37.462;2022-10-31T07:41:01;97937.97;;;1.83;79.66
66385;BME280;53426;55.872;37.462;2022-10-31T07:43:30;97966.91;;;1.91;79.61
66385;BME280;53426;55.872;37.462;2022-10-31T07:46:13;97959.13;;;2.02;79.85
66385;BME280;53426;55.872;37.462;2022-10-31T07:49:01;97972.41;;;1.99;79.83
66385;BME280;53426;55.872;37.462;2022-10-31T07:51:57;97954.88;;;2.01;80.10
66385;BME280;53426;55.872;37.462;2022-10-31T07:54:23;97975.22;;;2.31;80.02
66385;BME280;53426;55.872;37.462;2022-10-31T07:56:48;97984.50;;;2.46;79.41
66385;BME280;53426;55.872;37.462;2022-10-31T07:59:14;97985.34;;;2.47;78.67
66385;BME280;53426;55.872;37.462;2022-10-31T08:01:40;97977.88;;;2.42;78.26
66385;BME280;53426;55.872;37.462;2022-10-31T08:04:25;98000.06;;;2.48;78.19
66385;BME280;53426;55.872;37.462;2022-10-31T08:07:16;98000.81;;;2.61;78.22
66385;BME280;53426;55.872;37.462;2022-10-31T08:09:48;97996.09;;;2.77;78.17
66385;BME280;53426;55.872;37.462;2022-10-31T08:12:18;98008.19;;;3.01;77.01
66385;BME280;53426;55.872;37.462;2022-10-31T08:14:45;98009.16;;;3.11;76.30
66385;BME280;53426;55.872;37.462;2022-10-31T08:17:12;98001.53;;;2.97;75.08
66385;BME280;53426;55.872;37.462;2022-10-31T08:19:51;98024.38;;;2.94;74.25
66385;BME280;53426;55.872;37.462;2022-10-31T08:22:18;98023.78;;;3.02;73.99
66385;BME280;53426;55.872;37.462;2022-10-31T08:24:44;98031.50;;;3.15;73.12
66385;BME280;53426;55.872;37.462;2022-10-31T08:27:11;98032.56;;;3.12;72.08
66385;BME280;53426;55.872;37.462;2022-10-31T08:29:38;98029.09;;;3.23;71.11
66385;BME280;53426;55.872;37.462;2022-10-31T08:32:05;98034.94;;;3.15;70.67
66385;BME280;53426;55.872;37.462;2022-10-31T08:34:51;98031.13;;;3.30;70.29
66385;BME280;53426;55.872;37.462;2022-10-31T08:37:35;98060.25;;;3.48;69.83
66385;BME280;53426;55.872;37.462;2022-10-31T08:40:05;98053.56;;;3.66;69.18
66385;BME280;53426;55.872;37.462;2022-10-31T08:42:33;98067.28;;;4.02;67.30
66385;BME280;53426;55.872;37.462;2022-10-31T08:45:00;98051.56;;;4.02;67.37
66385;BME280;53426;55.872;37.462;2022-10-31T08:47:28;98067.19;;;3.92;67.16
66385;BME280;53426;55.872;37.462;2022-10-31T08:49:56;98060.19;;;3.93;66.85
66385;BME280;53426;55.872;37.462;2022-10-31T08:52:23;98065.84;;;4.09;66.94
66385;BME280;53426;55.872;37.462;2022-10-31T08:54:51;98081.75;;;4.17;66.98
66385;BME280;53426;55.872;37.462;2022-10-31T08:57:35;98085.81;;;4.10;66.83
66385;BME280;53426;55.872;37.462;2022-10-31T09:00:01;98086.22;;;3.94;67.51
66385;BME280;53426;55.872;37.462;2022-10-31T09:02:58;98087.59;;;3.55;67.81
66385;BME280;53426;55.872;37.462;2022-10-31T09:05:30;98091.88;;;3.34;68.95
66385;BME280;53426;55.872;37.462;2022-10-31T09:07:57;98095.34;;;3.46;68.90
66385;BME280;53426;55.872;37.462;2022-10-31T09:10:25;98094.97;;;3.39;68.58
66385;BME280;53426;55.872;37.462;2022-10-31T09:13:08;98106.97;;;3.86;67.93
66385;BME280;53426;55.872;37.462;2022-10-31T09:15:52;98098.59;;;4.35;65.12
66385;BME280;53426;55.872;37.462;2022-10-31T09:18:22;98104.19;;;4.42;64.26
66385;BME280;53426;55.872;37.462;2022-10-31T09:20:59;98102.41;;;4.31;63.86
66385;BME280;53426;55.872;37.462;2022-10-31T09:23:26;98107.91;;;4.28;63.07
66385;BME280;53426;55.872;37.462;2022-10-31T09:25:53;98116.38;;;4.20;63.02
66385;BME280;53426;55.872;37.462;2022-10-31T09:28:25;98101.63;;;4.51;62.24
66385;BME280;53426;55.872;37.462;2022-10-31T09:30:53;98112.25;;;4.71;62.15
66385;BME280;53426;55.872;37.462;2022-10-31T09:33:39;98104.78;;;4.87;61.05
66385;BME280;53426;55.872;37.462;2022-10-31T09:36:25;98139.63;;;5.19;60.79
66385;BME280;53426;55.872;37.462;2022-10-31T09:38:51;98133.69;;;5.17;60.95
66385;BME280;53426;55.872;37.462;2022-10-31T09:47:47;98165.38;;;3.98;67.27
66385;BME280;53426;55.872;37.462;2022-10-31T09:50:46;98179.13;;;4.22;65.75
66385;BME280;53426;55.872;37.462;2022-10-31T09:53:53;98169.03;;;4.06;65.76
66385;BME280;53426;55.872;37.462;2022-10-31T09:56:23;98172.00;;;4.88;64.96
66385;BME280;53426;55.872;37.462;2022-10-31T09:59:00;98182.00;;;4.94;64.11
66385;BME280;53426;55.872;37.462;2022-10-31T10:01:33;98198.22;;;4.88;62.90
66385;BME280;53426;55.872;37.462;2022-10-31T10:04:30;98175.91;;;4.93;62.74
66385;BME280;53426;55.872;37.462;2022-10-31T10:07:11;98201.16;;;4.74;63.82
66385;BME280;53426;55.872;37.462;2022-10-31T10:09:42;98225.53;;;4.42;64.40
66385;BME280;53426;55.872;37.462;2022-10-31T10:15:37;98232.03;;;3.94;67.75
66385;BME280;53426;55.872;37.462;2022-10-31T10:18:32;98221.63;;;4.80;64.93
66385;BME280;53426;55.872;37.462;2022-10-31T10:23:58;98241.75;;;4.90;63.97
66385;BME280;53426;55.872;37.462;2022-10-31T10:26:37;98237.56;;;4.88;64.13
66385;BME280;53426;55.872;37.462;2022-10-31T10:29:33;98239.69;;;4.62;64.14
66385;BME280;53426;55.872;37.462;2022-10-31T10:32:04;98244.38;;;4.36;65.44
66385;BME280;53426;55.872;37.462;2022-10-31T10:34:40;98237.72;;;4.10;64.48
66385;BME280;53426;55.872;37.462;2022-10-31T10:37:24;98256.53;;;4.15;65.21
66385;BME280;53426;55.872;37.462;2022-10-31T10:39:56;98255.81;;;4.46;64.53
66385;BME280;53426;55.872;37.462;2022-10-31T10:42:27;98242.13;;;4.75;64.63
66385;BME280;53426;55.872;37.462;2022-10-31T10:45:17;98254.06;;;5.11;63.04
66385;BME280;53426;55.872;37.462;2022-10-31T10:51:06;98247.94;;;4.46;64.24
66385;BME280;53426;55.872;37.462;2022-10-31T10:53:45;98253.81;;;4.05;64.39
66385;BME280;53426;55.872;37.462;2022-10-31T10:59:22;98246.78;;;3.84;65.36
66385;BME280;53426;55.872;37.462;2022-10-31T11:01:50;98221.91;;;3.78;65.53
66385;BME280;53426;55.872;37.462;2022-10-31T11:07:07;98252.38;;;3.79;66.10
66385;BME280;53426;55.872;37.462;2022-10-31T11:09:34;98256.53;;;3.70;66.37
66385;BME280;53426;55.872;37.462;2022-10-31T11:12:14;98264.41;;;3.70;66.51
66385;BME280;53426;55.872;37.462;2022-10-31T11:15:16;98272.09;;;3.72;66.48
66385;BME280;53426;55.872;37.462;2022-10-31T11:17:35;98268.78;;;3.59;66.46
66385;BME280;53426;55.872;37.462;2022-10-31T11:22:44;98277.94;;;3.53;66.55
66385;BME280;53426;55.872;37.462;2022-10-31T11:27:47;98275.41;;;3.17;67.36
66385;BME280;53426;55.872;37.462;2022-10-31T11:30:24;98292.41;;;3.11;67.67
66385;BME280;53426;55.872;37.462;2022-10-31T11:32:51;98266.94;;;3.02;67.78
66385;BME280;53426;55.872;37.462;2022-10-31T11:35:19;98260.31;;;3.09;67.94
66385;BME280;53426;55.872;37.462;2022-10-31T11:37:48;98274.94;;;3.12;68.11
66385;BME280;53426;55.872;37.462;2022-10-31T11:40:18;98273.88;;;3.14;68.01
66385;BME280;53426;55.872;37.462;2022-10-31T11:42:44;98275.22;;;2.96;67.63
66385;BME280;53426;55.872;37.462;2022-10-31T11:45:30;98273.72;;;3.05;68.46
66385;BME280;53426;55.872;37.462;2022-10-31T11:47:58;98254.16;;;2.86;68.25
66385;BME280;53426;55.872;37.462;2022-10-31T11:50:40;98296.91;;;3.09;68.32
66385;BME280;53426;55.872;37.462;2022-10-31T11:53:16;98296.47;;;3.15;68.64
66385;BME280;53426;55.872;37.462;2022-10-31T11:55:44;98289.47;;;3.16;68.46
66385;BME280;53426;55.872;37.462;2022-10-31T11:58:25;98285.53;;;3.10;69.05
66385;BME280;53426;55.872;37.462;2022-10-31T12:00:54;98286.56;;;3.08;69.34
66385;BME280;53426;55.872;37.462;2022-10-31T12:06:02;98284.44;;;3.13;69.43
66385;BME280;53426;55.872;37.462;2022-10-31T12:08:32;98293.38;;;3.10;69.83
66385;BME280;53426;55.872;37.462;2022-10-31T12:16:58;98302.53;;;3.16;70.06
66385;BME280;53426;55.872;37.462;2022-10-31T12:22:29;98273.00;;;2.79;70.96
66385;BME280;53426;55.872;37.462;2022-10-31T12:25:10;98304.75;;;2.85;72.15
66385;BME280;53426;55.872;37.462;2022-10-31T12:28:08;98300.75;;;2.92;72.21
66385;BME280;53426;55.872;37.462;2022-10-31T12:33:35;98302.97;;;2.86;72.92
66385;BME280;53426;55.872;37.462;2022-10-31T12:36:34;98308.44;;;2.83;72.50
66385;BME280;53426;55.872;37.462;2022-10-31T12:41:49;98329.66;;;2.78;72.77
66385;BME280;53426;55.872;37.462;2022-10-31T12:47:30;98329.97;;;2.86;72.73
66385;BME280;53426;55.872;37.462;2022-10-31T12:57:48;98321.63;;;2.81;72.02
66385;BME280;53426;55.872;37.462;2022-10-31T13:00:18;98344.22;;;2.82;71.69
66385;BME280;53426;55.872;37.462;2022-10-31T13:02:58;98353.78;;;2.94;71.54
66385;BME280;53426;55.872;37.462;2022-10-31T13:05:33;98355.66;;;2.92;71.38
66385;BME280;53426;55.872;37.462;2022-10-31T13:11:17;98354.53;;;2.84;71.15
66385;BME280;53426;55.872;37.462;2022-10-31T13:16:38;98372.25;;;3.04;70.97
66385;BME280;53426;55.872;37.462;2022-10-31T13:19:19;98343.78;;;2.88;70.52
66385;BME280;53426;55.872;37.462;2022-10-31T13:22:02;98376.31;;;3.08;70.62
66385;BME280;53426;55.872;37.462;2022-10-31T13:24:38;98355.34;;;2.97;70.42
66385;BME280;53426;55.872;37.462;2022-10-31T13:27:13;98380.03;;;3.17;70.25
66385;BME280;53426;55.872;37.462;2022-10-31T13:32:41;98366.88;;;2.94;70.37
66385;BME280;53426;55.872;37.462;2022-10-31T13:35:21;98385.44;;;3.03;70.22
66385;BME280;53426;55.872;37.462;2022-10-31T13:37:56;98389.50;;;3.07;70.34
66385;BME280;53426;55.872;37.462;2022-10-31T13:46:22;98378.03;;;2.97;70.69
66385;BME280;53426;55.872;37.462;2022-10-31T13:48:48;98406.97;;;3.06;70.63
66385;BME280;53426;55.872;37.462;2022-10-31T13:51:25;98380.38;;;2.88;71.11
66385;BME280;53426;55.872;37.462;2022-10-31T13:56:28;98366.50;;;2.63;71.61
66385;BME280;53426;55.872;37.462;2022-10-31T14:01:27;98416.63;;;2.93;71.81
66385;BME280;53426;55.872;37.462;2022-10-31T14:04:06;98425.09;;;2.97;71.71
66385;BME280;53426;55.872;37.462;2022-10-31T14:06:42;98440.25;;;3.04;71.82
66385;BME280;53426;55.872;37.462;2022-10-31T14:09:39;98427.69;;;2.97;71.53
66385;BME280;53426;55.872;37.462;2022-10-31T14:12:08;98434.59;;;2.98;71.83
66385;BME280;53426;55.872;37.462;2022-10-31T14:14:45;98428.53;;;2.97;71.95
66385;BME280;53426;55.872;37.462;2022-10-31T14:17:21;98428.13;;;2.90;71.87
66385;BME280;53426;55.872;37.462;2022-10-31T14:20:41;98448.63;;;2.97;72.12
66385;BME280;53426;55.872;37.462;2022-10-31T14:22:47;98447.59;;;2.99;71.63
66385;BME280;53426;55.872;37.462;2022-10-31T14:25:33;98446.50;;;3.02;71.98
66385;BME280;53426;55.872;37.462;2022-10-31T14:28:05;98460.97;;;2.94;72.19
66385;BME280;53426;55.872;37.462;2022-10-31T14:30:55;98459.81;;;2.99;71.91
66385;BME280;53426;55.872;37.462;2022-10-31T14:33:23;98459.31;;;2.93;71.83
66385;BME280;53426;55.872;37.462;2022-10-31T14:38:29;98459.31;;;2.81;71.59
66385;BME280;53426;55.872;37.462;2022-10-31T14:44:34;98473.50;;;2.89;72.05
66385;BME280;53426;55.872;37.462;2022-10-31T14:51:53;98486.59;;;2.89;71.68
66385;BME280;53426;55.872;37.462;2022-10-31T14:54:41;98487.13;;;2.94;71.30
66385;BME280;53426;55.872;37.462;2022-10-31T14:57:20;98491.09;;;2.87;71.47
66385;BME280;53426;55.872;37.462;2022-10-31T14:59:51;98486.91;;;2.85;72.18
66385;BME280;53426;55.872;37.462;2022-10-31T15:02:25;98490.78;;;2.79;72.27
66385;BME280;53426;55.872;37.462;2022-10-31T15:04:55;98485.47;;;2.81;72.25
66385;BME280;53426;55.872;37.462;2022-10-31T15:07:24;98476.16;;;2.64;72.41
66385;BME280;53426;55.872;37.462;2022-10-31T15:10:05;98494.03;;;2.70;72.36
66385;BME280;53426;55.872;37.462;2022-10-31T15:12:35;98500.75;;;2.62;72.29
66385;BME280;53426;55.872;37.462;2022-10-31T15:15:17;98508.69;;;2.60;72.56
66385;BME280;53426;55.872;37.462;2022-10-31T15:17:49;98510.66;;;2.57;72.92
66385;BME280;53426;55.872;37.462;2022-10-31T15:20:24;98508.59;;;2.62;72.74
66385;BME280;53426;55.872;37.462;2022-10-31T15:22:52;98517.22;;;2.62;72.73
66385;BME280;53426;55.872;37.462;2022-10-31T15:25:21;98526.56;;;2.66;73.07
66385;BME280;53426;55.872;37.462;2022-10-31T15:27:49;98526.22;;;2.58;72.80
66385;BME280;53426;55.872;37.462;2022-10-31T15:30:24;98529.19;;;2.66;72.67
66385;BME280;53426;55.872;37.462;2022-10-31T15:32:51;98531.78;;;2.66;72.80